sensor_id;sensor_type;location;lat;lon;timestamp;P1;durP1;ratioP1;P2;durP2;ratioP2
17496;SDS011;62150;43.582;1.456;2023-09-18T05:53:49;12.20;;;4.68;;
17496;SDS011;62150;43.582;1.456;2023-09-18T05:56:16;16.40;;;5.75;;
17496;SDS011;62150;43.582;1.456;2023-09-18T05:58:44;12.27;;;5.22;;
17496;SDS011;62150;43.582;1.456;2023-09-18T06:01:11;11.32;;;5.07;;
17496;SDS011;62150;43.582;1.456;2023-09-18T06:03:39;14.38;;;4.97;;
17496;SDS011;62150;43.582;1.456;2023-09-18T06:06:06;10.77;;;4.97;;
17496;SDS011;62150;43.582;1.456;2023-09-18T06:08:34;10.98;;;5.13;;
17496;SDS011;62150;43.582;1.456;2023-09-18T06:11:03;12.18;;;5.25;;
17496;SDS011;62150;43.582;1.456;2023-09-18T06:13:30;10.32;;;5.20;;
17496;SDS011;62150;43.582;1.456;2023-09-18T06:15:59;12.00;;;4.68;;
17496;SDS011;62150;43.582;1.456;2023-09-18T06:18:32;10.32;;;4.57;;
17496;SDS011;62150;43.582;1.456;2023-09-18T06:21:00;12.55;;;4.88;;
17496;SDS011;62150;43.582;1.456;2023-09-18T06:23:28;11.32;;;4.95;;
17496;SDS011;62150;43.582;1.456;2023-09-18T06:25:55;11.75;;;5.30;;
17496;SDS011;62150;43.582;1.456;2023-09-18T06:28:26;12.07;;;5.07;;
17496;SDS011;62150;43.582;1.456;2023-09-18T06:30:53;12.40;;;5.07;;
17496;SDS011;62150;43.582;1.456;2023-09-18T06:33:21;13.60;;;5.55;;
17496;SDS011;62150;43.582;1.456;2023-09-18T06:35:48;13.35;;;5.10;;
17496;SDS011;62150;43.582;1.456;2023-09-18T06:38:17;15.70;;;5.38;;
17496;SDS011;62150;43.582;1.456;2023-09-18T06:40:45;15.57;;;6.07;;
17496;SDS011;62150;43.582;1.456;2023-09-18T06:43:13;14.23;;;5.30;;
17496;SDS011;62150;43.582;1.456;2023-09-18T06:45:41;14.75;;;5.50;;
17496;SDS011;62150;43.582;1.456;2023-09-18T06:48:09;15.30;;;5.72;;
17496;SDS011;62150;43.582;1.456;2023-09-18T06:50:36;16.48;;;6.28;;
17496;SDS011;62150;43.582;1.456;2023-09-18T06:53:04;16.15;;;5.85;;
17496;SDS011;62150;43.582;1.456;2023-09-18T06:55:33;12.60;;;5.38;;
17496;SDS011;62150;43.582;1.456;2023-09-18T06:58:00;14.18;;;5.47;;
17496;SDS011;62150;43.582;1.456;2023-09-18T07:00:28;15.10;;;5.80;;
17496;SDS011;62150;43.582;1.456;2023-09-18T07:02:57;16.48;;;6.32;;
17496;SDS011;62150;43.582;1.456;2023-09-18T07:05:24;17.58;;;6.82;;
17496;SDS011;62150;43.582;1.456;2023-09-18T07:07:52;18.35;;;6.50;;
17496;SDS011;62150;43.582;1.456;2023-09-18T07:10:19;23.42;;;6.93;;
17496;SDS011;62150;43.582;1.456;2023-09-18T07:12:47;16.27;;;6.72;;
17496;SDS011;62150;43.582;1.456;2023-09-18T07:15:14;18.23;;;7.43;;
17496;SDS011;62150;43.582;1.456;2023-09-18T07:17:43;20.70;;;7.72;;
17496;SDS011;62150;43.582;1.456;2023-09-18T07:20:12;20.58;;;7.45;;
17496;SDS011;62150;43.582;1.456;2023-09-18T07:22:40;20.20;;;7.30;;
17496;SDS011;62150;43.582;1.456;2023-09-18T07:25:13;18.40;;;7.55;;
17496;SDS011;62150;43.582;1.456;2023-09-18T07:27:41;18.42;;;7.72;;
17496;SDS011;62150;43.582;1.456;2023-09-18T07:30:09;17.65;;;7.78;;
17496;SDS011;62150;43.582;1.456;2023-09-18T07:32:39;17.83;;;7.43;;
17496;SDS011;62150;43.582;1.456;2023-09-18T07:35:07;18.48;;;7.38;;
17496;SDS011;62150;43.582;1.456;2023-09-18T07:37:37;18.17;;;7.72;;
17496;SDS011;62150;43.582;1.456;2023-09-18T07:40:05;18.40;;;7.82;;
17496;SDS011;62150;43.582;1.456;2023-09-18T07:42:33;17.63;;;8.40;;
17496;SDS011;62150;43.582;1.456;2023-09-18T07:45:01;16.45;;;8.13;;
17496;SDS011;62150;43.582;1.456;2023-09-18T07:47:30;14.85;;;7.15;;
17496;SDS011;62150;43.582;1.456;2023-09-18T07:49:59;17.00;;;7.10;;
17496;SDS011;62150;43.582;1.456;2023-09-18T07:52:26;16.95;;;7.38;;
17496;SDS011;62150;43.582;1.456;2023-09-18T07:54:56;14.70;;;7.30;;
17496;SDS011;62150;43.582;1.456;2023-09-18T07:57:25;14.95;;;6.72;;
17496;SDS011;62150;43.582;1.456;2023-09-18T07:59:56;17.55;;;7.57;;
17496;SDS011;62150;43.582;1.456;2023-09-18T08:02:23;18.55;;;8.48;;
17496;SDS011;62150;43.582;1.456;2023-09-18T08:04:53;17.58;;;8.18;;
17496;SDS011;62150;43.582;1.456;2023-09-18T08:07:21;17.98;;;8.15;;
17496;SDS011;62150;43.582;1.456;2023-09-18T08:09:48;15.23;;;7.38;;
17496;SDS011;62150;43.582;1.456;2023-09-18T08:12:17;16.17;;;7.20;;
17496;SDS011;62150;43.582;1.456;2023-09-18T08:14:45;14.07;;;7.40;;
17496;SDS011;62150;43.582;1.456;2023-09-18T08:17:14;16.08;;;7.95;;
17496;SDS011;62150;43.582;1.456;2023-09-18T08:19:41;17.27;;;7.35;;
17496;SDS011;62150;43.582;1.456;2023-09-18T08:22:09;15.35;;;7.40;;
17496;SDS011;62150;43.582;1.456;2023-09-18T08:24:40;14.05;;;6.97;;
17496;SDS011;62150;43.582;1.456;2023-09-18T08:27:08;15.70;;;7.32;;
17496;SDS011;62150;43.582;1.456;2023-09-18T08:29:38;15.77;;;7.68;;
17496;SDS011;62150;43.582;1.456;2023-09-18T08:32:05;15.88;;;7.25;;
17496;SDS011;62150;43.582;1.456;2023-09-18T08:34:33;14.82;;;6.78;;
17496;SDS011;62150;43.582;1.456;2023-09-18T08:37:00;14.25;;;7.65;;
17496;SDS011;62150;43.582;1.456;2023-09-18T08:39:28;14.63;;;6.95;;
17496;SDS011;62150;43.582;1.456;2023-09-18T08:41:58;13.80;;;6.72;;
17496;SDS011;62150;43.582;1.456;2023-09-18T08:44:29;13.93;;;6.35;;
17496;SDS011;62150;43.582;1.456;2023-09-18T08:46:58;13.70;;;5.90;;
17496;SDS011;62150;43.582;1.456;2023-09-18T08:49:27;13.75;;;6.20;;
17496;SDS011;62150;43.582;1.456;2023-09-18T08:51:57;12.82;;;6.38;;
17496;SDS011;62150;43.582;1.456;2023-09-18T08:54:26;12.40;;;5.82;;
17496;SDS011;62150;43.582;1.456;2023-09-18T08:56:54;13.60;;;7.07;;
17496;SDS011;62150;43.582;1.456;2023-09-18T08:59:22;13.50;;;6.32;;
17496;SDS011;62150;43.582;1.456;2023-09-18T09:01:54;15.43;;;6.50;;
17496;SDS011;62150;43.582;1.456;2023-09-18T09:04:22;13.70;;;6.35;;
17496;SDS011;62150;43.582;1.456;2023-09-18T09:06:51;13.93;;;6.70;;
17496;SDS011;62150;43.582;1.456;2023-09-18T09:09:18;14.32;;;7.25;;
17496;SDS011;62150;43.582;1.456;2023-09-18T09:11:48;16.20;;;6.70;;
17496;SDS011;62150;43.582;1.456;2023-09-18T09:14:16;14.95;;;6.95;;
17496;SDS011;62150;43.582;1.456;2023-09-18T09:16:47;13.77;;;6.32;;
17496;SDS011;62150;43.582;1.456;2023-09-18T09:19:15;14.70;;;6.22;;
17496;SDS011;62150;43.582;1.456;2023-09-18T09:21:45;12.90;;;6.43;;
17496;SDS011;62150;43.582;1.456;2023-09-18T09:24:13;12.68;;;5.93;;
17496;SDS011;62150;43.582;1.456;2023-09-18T09:26:41;13.35;;;5.57;;
17496;SDS011;62150;43.582;1.456;2023-09-18T09:29:14;12.60;;;5.22;;
17496;SDS011;62150;43.582;1.456;2023-09-18T09:31:44;10.88;;;4.72;;
17496;SDS011;62150;43.582;1.456;2023-09-18T09:34:12;9.90;;;4.65;;
17496;SDS011;62150;43.582;1.456;2023-09-18T09:36:53;11.95;;;4.65;;
17496;SDS011;62150;43.582;1.456;2023-09-18T09:39:22;11.48;;;4.75;;
17496;SDS011;62150;43.582;1.456;2023-09-18T09:41:50;12.77;;;5.47;;
17496;SDS011;62150;43.582;1.456;2023-09-18T09:44:18;11.30;;;5.30;;
17496;SDS011;62150;43.582;1.456;2023-09-18T09:46:46;11.02;;;5.32;;
17496;SDS011;62150;43.582;1.456;2023-09-18T09:49:14;14.07;;;5.32;;
17496;SDS011;62150;43.582;1.456;2023-09-18T09:51:44;11.85;;;5.10;;
17496;SDS011;62150;43.582;1.456;2023-09-18T09:54:13;10.32;;;5.03;;
17496;SDS011;62150;43.582;1.456;2023-09-18T09:56:58;12.18;;;4.63;;
17496;SDS011;62150;43.582;1.456;2023-09-18T09:59:30;12.18;;;4.85;;
17496;SDS011;62150;43.582;1.456;2023-09-18T10:02:00;10.68;;;4.80;;
17496;SDS011;62150;43.582;1.456;2023-09-18T10:04:28;11.23;;;4.75;;
17496;SDS011;62150;43.582;1.456;2023-09-18T10:06:58;10.90;;;4.45;;
17496;SDS011;62150;43.582;1.456;2023-09-18T10:09:35;12.75;;;5.22;;
17496;SDS011;62150;43.582;1.456;2023-09-18T10:12:06;10.70;;;4.50;;
17496;SDS011;62150;43.582;1.456;2023-09-18T10:14:37;10.48;;;4.53;;
17496;SDS011;62150;43.582;1.456;2023-09-18T10:17:09;9.63;;;3.97;;
17496;SDS011;62150;43.582;1.456;2023-09-18T10:19:45;10.05;;;3.80;;
17496;SDS011;62150;43.582;1.456;2023-09-18T10:22:21;9.43;;;3.80;;
17496;SDS011;62150;43.582;1.456;2023-09-18T10:25:07;9.32;;;4.50;;
17496;SDS011;62150;43.582;1.456;2023-09-18T10:27:38;9.60;;;4.28;;
17496;SDS011;62150;43.582;1.456;2023-09-18T10:30:07;10.75;;;4.22;;
17496;SDS011;62150;43.582;1.456;2023-09-18T10:32:37;10.30;;;4.28;;
17496;SDS011;62150;43.582;1.456;2023-09-18T10:35:06;10.05;;;4.45;;
17496;SDS011;62150;43.582;1.456;2023-09-18T10:37:37;13.27;;;5.60;;
17496;SDS011;62150;43.582;1.456;2023-09-18T10:40:07;12.73;;;5.38;;
17496;SDS011;62150;43.582;1.456;2023-09-18T10:42:37;12.00;;;5.10;;
17496;SDS011;62150;43.582;1.456;2023-09-18T10:45:06;10.45;;;4.65;;
17496;SDS011;62150;43.582;1.456;2023-09-18T10:47:36;10.48;;;4.35;;
17496;SDS011;62150;43.582;1.456;2023-09-18T10:50:05;10.70;;;4.30;;
17496;SDS011;62150;43.582;1.456;2023-09-18T10:52:34;12.07;;;4.40;;
17496;SDS011;62150;43.582;1.456;2023-09-18T10:55:02;10.68;;;4.00;;
17496;SDS011;62150;43.582;1.456;2023-09-18T10:57:34;10.77;;;3.78;;
17496;SDS011;62150;43.582;1.456;2023-09-18T11:00:03;10.32;;;4.07;;
17496;SDS011;62150;43.582;1.456;2023-09-18T11:02:39;9.50;;;3.90;;
17496;SDS011;62150;43.582;1.456;2023-09-18T11:05:07;8.93;;;3.72;;
17496;SDS011;62150;43.582;1.456;2023-09-18T11:07:34;9.23;;;3.72;;
17496;SDS011;62150;43.582;1.456;2023-09-18T11:12:53;8.77;;;3.53;;
17496;SDS011;62150;43.582;1.456;2023-09-18T11:15:32;8.75;;;3.55;;
17496;SDS011;62150;43.582;1.456;2023-09-18T11:18:01;9.23;;;3.58;;
17496;SDS011;62150;43.582;1.456;2023-09-18T11:20:29;9.18;;;4.05;;
17496;SDS011;62150;43.582;1.456;2023-09-18T11:22:57;9.10;;;3.65;;
17496;SDS011;62150;43.582;1.456;2023-09-18T11:25:36;8.50;;;3.20;;
17496;SDS011;62150;43.582;1.456;2023-09-18T11:28:07;8.50;;;3.25;;
17496;SDS011;62150;43.582;1.456;2023-09-18T11:30:48;9.27;;;3.42;;
17496;SDS011;62150;43.582;1.456;2023-09-18T11:33:16;6.50;;;3.13;;
17496;SDS011;62150;43.582;1.456;2023-09-18T11:36:01;6.63;;;3.38;;
17496;SDS011;62150;43.582;1.456;2023-09-18T11:38:34;7.57;;;3.33;;
17496;SDS011;62150;43.582;1.456;2023-09-18T11:41:20;8.13;;;3.35;;
17496;SDS011;62150;43.582;1.456;2023-09-18T11:43:52;6.60;;;3.30;;
17496;SDS011;62150;43.582;1.456;2023-09-18T11:46:58;9.68;;;3.20;;
17496;SDS011;62150;43.582;1.456;2023-09-18T11:49:26;7.03;;;3.20;;
17496;SDS011;62150;43.582;1.456;2023-09-18T11:51:58;9.40;;;3.40;;
17496;SDS011;62150;43.582;1.456;2023-09-18T11:54:27;8.40;;;3.53;;
17496;SDS011;62150;43.582;1.456;2023-09-18T11:56:55;8.73;;;3.58;;
17496;SDS011;62150;43.582;1.456;2023-09-18T11:59:34;6.35;;;3.10;;
17496;SDS011;62150;43.582;1.456;2023-09-18T12:02:04;8.38;;;3.40;;
17496;SDS011;62150;43.582;1.456;2023-09-18T12:04:33;8.10;;;3.20;;
17496;SDS011;62150;43.582;1.456;2023-09-18T12:07:01;7.90;;;3.20;;
17496;SDS011;62150;43.582;1.456;2023-09-18T12:09:30;7.80;;;3.05;;
17496;SDS011;62150;43.582;1.456;2023-09-18T12:11:58;7.00;;;2.92;;
17496;SDS011;62150;43.582;1.456;2023-09-18T12:14:30;9.05;;;3.08;;
17496;SDS011;62150;43.582;1.456;2023-09-18T12:17:00;6.63;;;2.70;;
17496;SDS011;62150;43.582;1.456;2023-09-18T12:19:29;7.03;;;2.60;;
17496;SDS011;62150;43.582;1.456;2023-09-18T12:21:59;5.38;;;2.80;;
17496;SDS011;62150;43.582;1.456;2023-09-18T12:24:27;6.82;;;2.72;;
17496;SDS011;62150;43.582;1.456;2023-09-18T12:26:55;7.28;;;2.85;;
17496;SDS011;62150;43.582;1.456;2023-09-18T12:29:25;5.82;;;2.88;;
17496;SDS011;62150;43.582;1.456;2023-09-18T12:31:53;5.93;;;2.75;;
17496;SDS011;62150;43.582;1.456;2023-09-18T12:34:22;7.18;;;2.95;;
17496;SDS011;62150;43.582;1.456;2023-09-18T12:36:49;6.03;;;2.85;;
17496;SDS011;62150;43.582;1.456;2023-09-18T12:39:17;6.28;;;2.78;;
17496;SDS011;62150;43.582;1.456;2023-09-18T12:41:47;7.47;;;3.20;;
17496;SDS011;62150;43.582;1.456;2023-09-18T12:44:14;6.53;;;2.85;;
17496;SDS011;62150;43.582;1.456;2023-09-18T12:46:43;8.85;;;3.42;;
17496;SDS011;62150;43.582;1.456;2023-09-18T12:49:15;7.05;;;3.28;;
17496;SDS011;62150;43.582;1.456;2023-09-18T12:51:53;7.90;;;3.17;;
17496;SDS011;62150;43.582;1.456;2023-09-18T12:54:35;9.00;;;3.65;;
17496;SDS011;62150;43.582;1.456;2023-09-18T12:57:04;6.25;;;3.03;;
17496;SDS011;62150;43.582;1.456;2023-09-18T12:59:33;9.98;;;3.20;;
17496;SDS011;62150;43.582;1.456;2023-09-18T13:02:01;7.65;;;3.60;;
17496;SDS011;62150;43.582;1.456;2023-09-18T13:04:30;7.03;;;3.28;;
17496;SDS011;62150;43.582;1.456;2023-09-18T13:07:11;9.15;;;3.75;;
17496;SDS011;62150;43.582;1.456;2023-09-18T13:09:39;9.90;;;3.85;;
17496;SDS011;62150;43.582;1.456;2023-09-18T13:12:07;7.95;;;3.50;;
17496;SDS011;62150;43.582;1.456;2023-09-18T13:17:25;7.53;;;3.42;;
17496;SDS011;62150;43.582;1.456;2023-09-18T13:19:53;8.75;;;3.60;;
17496;SDS011;62150;43.582;1.456;2023-09-18T13:22:25;8.77;;;4.00;;
17496;SDS011;62150;43.582;1.456;2023-09-18T13:24:56;8.63;;;3.72;;
17496;SDS011;62150;43.582;1.456;2023-09-18T13:27:23;9.13;;;3.58;;
17496;SDS011;62150;43.582;1.456;2023-09-18T13:29:51;7.97;;;3.60;;
17496;SDS011;62150;43.582;1.456;2023-09-18T13:32:20;8.85;;;3.63;;
17496;SDS011;62150;43.582;1.456;2023-09-18T13:34:48;8.90;;;3.40;;
17496;SDS011;62150;43.582;1.456;2023-09-18T13:37:15;7.22;;;3.28;;
17496;SDS011;62150;43.582;1.456;2023-09-18T13:39:46;8.27;;;3.28;;
17496;SDS011;62150;43.582;1.456;2023-09-18T13:42:14;6.43;;;2.90;;
17496;SDS011;62150;43.582;1.456;2023-09-18T13:44:41;5.90;;;3.10;;
17496;SDS011;62150;43.582;1.456;2023-09-18T13:47:12;6.07;;;2.75;;
17496;SDS011;62150;43.582;1.456;2023-09-18T13:49:39;5.32;;;2.50;;
17496;SDS011;62150;43.582;1.456;2023-09-18T13:52:07;4.85;;;2.30;;
17496;SDS011;62150;43.582;1.456;2023-09-18T13:54:34;4.78;;;2.38;;
17496;SDS011;62150;43.582;1.456;2023-09-18T13:57:03;5.07;;;2.60;;
17496;SDS011;62150;43.582;1.456;2023-09-18T13:59:31;5.38;;;2.38;;
17496;SDS011;62150;43.582;1.456;2023-09-18T14:01:58;6.20;;;2.55;;
17496;SDS011;62150;43.582;1.456;2023-09-18T14:04:26;5.93;;;2.47;;
17496;SDS011;62150;43.582;1.456;2023-09-18T14:06:54;5.15;;;2.60;;
17496;SDS011;62150;43.582;1.456;2023-09-18T14:09:22;5.55;;;2.45;;
17496;SDS011;62150;43.582;1.456;2023-09-18T14:11:50;3.60;;;2.20;;
17496;SDS011;62150;43.582;1.456;2023-09-18T14:14:19;5.10;;;2.35;;
17496;SDS011;62150;43.582;1.456;2023-09-18T14:16:48;4.53;;;2.30;;
17496;SDS011;62150;43.582;1.456;2023-09-18T14:19:16;5.10;;;2.30;;
17496;SDS011;62150;43.582;1.456;2023-09-18T14:21:43;4.40;;;2.30;;
17496;SDS011;62150;43.582;1.456;2023-09-18T14:24:11;4.50;;;2.40;;
17496;SDS011;62150;43.582;1.456;2023-09-18T14:26:38;6.18;;;2.45;;
17496;SDS011;62150;43.582;1.456;2023-09-18T14:29:07;4.78;;;2.50;;
17496;SDS011;62150;43.582;1.456;2023-09-18T14:31:36;4.65;;;2.30;;
17496;SDS011;62150;43.582;1.456;2023-09-18T14:34:04;5.78;;;2.20;;
17496;SDS011;62150;43.582;1.456;2023-09-18T14:36:31;4.38;;;2.30;;
17496;SDS011;62150;43.582;1.456;2023-09-18T14:38:59;4.80;;;2.28;;
17496;SDS011;62150;43.582;1.456;2023-09-18T14:41:26;4.55;;;1.98;;
17496;SDS011;62150;43.582;1.456;2023-09-18T14:43:55;4.38;;;1.90;;
17496;SDS011;62150;43.582;1.456;2023-09-18T14:46:23;3.15;;;1.92;;
17496;SDS011;62150;43.582;1.456;2023-09-18T14:48:52;4.03;;;1.75;;
17496;SDS011;62150;43.582;1.456;2023-09-18T14:51:20;2.20;;;1.60;;
17496;SDS011;62150;43.582;1.456;2023-09-18T14:53:47;2.50;;;1.70;;
17496;SDS011;62150;43.582;1.456;2023-09-18T14:56:15;2.70;;;1.80;;
17496;SDS011;62150;43.582;1.456;2023-09-18T14:58:43;2.55;;;1.60;;
17496;SDS011;62150;43.582;1.456;2023-09-18T15:01:10;2.60;;;1.55;;
17496;SDS011;62150;43.582;1.456;2023-09-18T15:03:39;2.03;;;1.48;;
17496;SDS011;62150;43.582;1.456;2023-09-18T15:06:08;2.28;;;1.40;;
17496;SDS011;62150;43.582;1.456;2023-09-18T15:08:36;2.75;;;1.45;;
17496;SDS011;62150;43.582;1.456;2023-09-18T15:11:04;2.03;;;1.60;;
17496;SDS011;62150;43.582;1.456;2023-09-18T15:13:31;2.85;;;1.67;;
17496;SDS011;62150;43.582;1.456;2023-09-18T15:16:00;1.55;;;1.42;;
17496;SDS011;62150;43.582;1.456;2023-09-18T15:18:28;3.53;;;1.60;;
17496;SDS011;62150;43.582;1.456;2023-09-18T15:20:56;1.45;;;1.30;;
17496;SDS011;62150;43.582;1.456;2023-09-18T15:23:25;1.63;;;1.50;;
17496;SDS011;62150;43.582;1.456;2023-09-18T15:25:52;1.63;;;1.50;;
17496;SDS011;62150;43.582;1.456;2023-09-18T15:28:20;3.20;;;1.80;;
17496;SDS011;62150;43.582;1.456;2023-09-18T15:30:55;1.85;;;1.33;;
17496;SDS011;62150;43.582;1.456;2023-09-18T15:33:23;2.95;;;1.60;;
17496;SDS011;62150;43.582;1.456;2023-09-18T15:35:52;2.25;;;1.55;;
17496;SDS011;62150;43.582;1.456;2023-09-18T15:38:22;4.85;;;1.70;;
17496;SDS011;62150;43.582;1.456;2023-09-18T15:40:52;1.83;;;1.40;;
17496;SDS011;62150;43.582;1.456;2023-09-18T15:43:20;3.90;;;1.60;;
17496;SDS011;62150;43.582;1.456;2023-09-18T15:45:47;2.97;;;1.55;;
17496;SDS011;62150;43.582;1.456;2023-09-18T15:48:15;1.63;;;1.50;;
17496;SDS011;62150;43.582;1.456;2023-09-18T15:50:42;3.63;;;1.70;;
17496;SDS011;62150;43.582;1.456;2023-09-18T15:53:10;3.65;;;1.30;;
17496;SDS011;62150;43.582;1.456;2023-09-18T15:55:40;2.05;;;1.40;;
17496;SDS011;62150;43.582;1.456;2023-09-18T15:58:07;2.50;;;1.38;;
17496;SDS011;62150;43.582;1.456;2023-09-18T16:00:36;1.50;;;1.40;;
17496;SDS011;62150;43.582;1.456;2023-09-18T16:03:03;2.97;;;1.50;;
17496;SDS011;62150;43.582;1.456;2023-09-18T16:05:31;2.50;;;1.40;;
17496;SDS011;62150;43.582;1.456;2023-09-18T16:07:58;2.92;;;1.50;;
17496;SDS011;62150;43.582;1.456;2023-09-18T16:10:29;1.50;;;1.40;;
17496;SDS011;62150;43.582;1.456;2023-09-18T16:12:58;3.97;;;1.40;;
17496;SDS011;62150;43.582;1.456;2023-09-18T16:15:26;3.38;;;1.55;;
17496;SDS011;62150;43.582;1.456;2023-09-18T16:17:53;2.00;;;1.40;;
17496;SDS011;62150;43.582;1.456;2023-09-18T16:20:21;2.25;;;1.27;;
17496;SDS011;62150;43.582;1.456;2023-09-18T16:22:48;4.00;;;1.50;;
17496;SDS011;62150;43.582;1.456;2023-09-18T16:25:16;2.72;;;1.40;;
17496;SDS011;62150;43.582;1.456;2023-09-18T16:27:43;2.97;;;1.50;;
17496;SDS011;62150;43.582;1.456;2023-09-18T16:30:12;1.73;;;1.33;;
17496;SDS011;62150;43.582;1.456;2023-09-18T16:32:40;1.80;;;1.23;;
17496;SDS011;62150;43.582;1.456;2023-09-18T16:35:08;2.45;;;1.42;;
17496;SDS011;62150;43.582;1.456;2023-09-18T16:37:35;4.40;;;1.58;;
17496;SDS011;62150;43.582;1.456;2023-09-18T16:40:04;1.85;;;1.30;;
17496;SDS011;62150;43.582;1.456;2023-09-18T16:42:32;2.72;;;1.70;;
17496;SDS011;62150;43.582;1.456;2023-09-18T16:45:00;4.10;;;1.80;;
17496;SDS011;62150;43.582;1.456;2023-09-18T16:47:29;3.28;;;1.50;;
17496;SDS011;62150;43.582;1.456;2023-09-18T16:49:58;3.28;;;1.40;;
17496;SDS011;62150;43.582;1.456;2023-09-18T16:52:26;3.47;;;1.73;;
17496;SDS011;62150;43.582;1.456;2023-09-18T16:54:53;3.70;;;1.55;;
17496;SDS011;62150;43.582;1.456;2023-09-18T16:57:21;1.58;;;1.20;;
17496;SDS011;62150;43.582;1.456;2023-09-18T16:59:48;2.67;;;1.50;;
17496;SDS011;62150;43.582;1.456;2023-09-18T17:02:17;2.75;;;1.70;;
17496;SDS011;62150;43.582;1.456;2023-09-18T17:04:46;4.15;;;1.90;;
17496;SDS011;62150;43.582;1.456;2023-09-18T17:07:14;3.03;;;1.50;;
17496;SDS011;62150;43.582;1.456;2023-09-18T17:09:42;3.55;;;1.60;;
17496;SDS011;62150;43.582;1.456;2023-09-18T17:12:10;4.25;;;1.55;;
17496;SDS011;62150;43.582;1.456;2023-09-18T17:14:37;2.42;;;1.42;;
17496;SDS011;62150;43.582;1.456;2023-09-18T17:17:05;4.45;;;1.60;;
17496;SDS011;62150;43.582;1.456;2023-09-18T17:19:32;3.35;;;1.55;;
17496;SDS011;62150;43.582;1.456;2023-09-18T17:22:01;5.53;;;1.85;;
17496;SDS011;62150;43.582;1.456;2023-09-18T17:24:29;3.40;;;1.65;;
17496;SDS011;62150;43.582;1.456;2023-09-18T17:27:00;3.95;;;1.70;;
17496;SDS011;62150;43.582;1.456;2023-09-18T17:29:27;5.18;;;1.63;;
17496;SDS011;62150;43.582;1.456;2023-09-18T17:31:56;4.38;;;1.60;;
17496;SDS011;62150;43.582;1.456;2023-09-18T17:34:23;4.00;;;1.80;;
17496;SDS011;62150;43.582;1.456;2023-09-18T17:36:53;5.00;;;1.77;;
17496;SDS011;62150;43.582;1.456;2023-09-18T17:39:22;3.85;;;1.60;;
17496;SDS011;62150;43.582;1.456;2023-09-18T17:41:50;3.22;;;1.70;;
17496;SDS011;62150;43.582;1.456;2023-09-18T17:44:18;4.35;;;1.80;;
17496;SDS011;62150;43.582;1.456;2023-09-18T17:46:45;6.22;;;1.90;;
17496;SDS011;62150;43.582;1.456;2023-09-18T17:49:14;3.25;;;1.70;;
17496;SDS011;62150;43.582;1.456;2023-09-18T17:51:41;2.65;;;1.48;;
17496;SDS011;62150;43.582;1.456;2023-09-18T17:54:09;6.45;;;2.03;;
17496;SDS011;62150;43.582;1.456;2023-09-18T17:56:38;3.25;;;1.80;;
17496;SDS011;62150;43.582;1.456;2023-09-18T17:59:05;4.13;;;1.80;;
17496;SDS011;62150;43.582;1.456;2023-09-18T18:01:36;4.63;;;1.80;;
17496;SDS011;62150;43.582;1.456;2023-09-18T18:04:04;6.35;;;1.95;;
17496;SDS011;62150;43.582;1.456;2023-09-18T18:06:32;6.43;;;1.90;;
17496;SDS011;62150;43.582;1.456;2023-09-18T18:09:00;4.18;;;2.10;;
17496;SDS011;62150;43.582;1.456;2023-09-18T18:11:29;6.70;;;2.50;;
17496;SDS011;62150;43.582;1.456;2023-09-18T18:13:58;4.20;;;2.17;;
17496;SDS011;62150;43.582;1.456;2023-09-18T18:16:26;4.68;;;2.08;;
17496;SDS011;62150;43.582;1.456;2023-09-18T18:18:55;4.63;;;1.90;;
17496;SDS011;62150;43.582;1.456;2023-09-18T18:21:23;4.00;;;2.10;;
17496;SDS011;62150;43.582;1.456;2023-09-18T18:23:51;4.68;;;2.13;;
17496;SDS011;62150;43.582;1.456;2023-09-18T18:26:19;5.35;;;2.17;;
17496;SDS011;62150;43.582;1.456;2023-09-18T18:28:51;3.63;;;2.10;;
17496;SDS011;62150;43.582;1.456;2023-09-18T18:31:21;4.35;;;2.15;;
17496;SDS011;62150;43.582;1.456;2023-09-18T18:33:49;4.80;;;2.00;;
17496;SDS011;62150;43.582;1.456;2023-09-18T18:36:17;5.78;;;2.00;;
17496;SDS011;62150;43.582;1.456;2023-09-18T18:38:45;4.13;;;1.88;;
17496;SDS011;62150;43.582;1.456;2023-09-18T18:41:12;4.90;;;1.92;;
17496;SDS011;62150;43.582;1.456;2023-09-18T18:43:40;5.60;;;2.10;;
17496;SDS011;62150;43.582;1.456;2023-09-18T18:46:07;5.00;;;1.98;;
17496;SDS011;62150;43.582;1.456;2023-09-18T18:48:37;4.72;;;2.00;;
17496;SDS011;62150;43.582;1.456;2023-09-18T18:51:06;5.68;;;2.40;;
17496;SDS011;62150;43.582;1.456;2023-09-18T18:53:36;5.65;;;2.17;;
17496;SDS011;62150;43.582;1.456;2023-09-18T18:56:03;5.97;;;2.20;;
17496;SDS011;62150;43.582;1.456;2023-09-18T18:58:31;5.10;;;2.10;;
17496;SDS011;62150;43.582;1.456;2023-09-18T19:01:00;5.72;;;2.05;;
17496;SDS011;62150;43.582;1.456;2023-09-18T19:03:28;5.80;;;2.20;;
17496;SDS011;62150;43.582;1.456;2023-09-18T19:06:00;4.15;;;2.00;;
17496;SDS011;62150;43.582;1.456;2023-09-18T19:08:28;3.92;;;2.00;;
17496;SDS011;62150;43.582;1.456;2023-09-18T19:10:57;7.25;;;2.20;;
17496;SDS011;62150;43.582;1.456;2023-09-18T19:13:25;4.97;;;1.92;;
17496;SDS011;62150;43.582;1.456;2023-09-18T19:15:53;6.15;;;2.28;;
17496;SDS011;62150;43.582;1.456;2023-09-18T19:18:23;5.63;;;2.00;;
17496;SDS011;62150;43.582;1.456;2023-09-18T19:20:51;3.85;;;1.80;;
17496;SDS011;62150;43.582;1.456;2023-09-18T19:23:20;4.60;;;1.98;;
17496;SDS011;62150;43.582;1.456;2023-09-18T19:25:48;6.30;;;1.95;;
17496;SDS011;62150;43.582;1.456;2023-09-18T19:28:16;5.20;;;1.90;;
17496;SDS011;62150;43.582;1.456;2023-09-18T19:30:44;5.43;;;1.90;;
17496;SDS011;62150;43.582;1.456;2023-09-18T19:33:12;6.13;;;1.98;;
17496;SDS011;62150;43.582;1.456;2023-09-18T19:35:41;4.18;;;1.95;;
17496;SDS011;62150;43.582;1.456;2023-09-18T19:38:09;3.50;;;1.95;;
17496;SDS011;62150;43.582;1.456;2023-09-18T19:40:38;4.85;;;2.00;;
17496;SDS011;62150;43.582;1.456;2023-09-18T19:43:08;6.72;;;2.20;;
17496;SDS011;62150;43.582;1.456;2023-09-18T19:45:36;5.93;;;1.80;;
17496;SDS011;62150;43.582;1.456;2023-09-18T19:48:03;6.20;;;2.33;;
17496;SDS011;62150;43.582;1.456;2023-09-18T19:50:31;7.32;;;2.05;;
17496;SDS011;62150;43.582;1.456;2023-09-18T19:52:59;6.82;;;2.03;;
17496;SDS011;62150;43.582;1.456;2023-09-18T19:55:27;7.25;;;2.10;;
17496;SDS011;62150;43.582;1.456;2023-09-18T19:57:56;8.50;;;2.40;;
17496;SDS011;62150;43.582;1.456;2023-09-18T20:00:25;5.88;;;2.10;;
17496;SDS011;62150;43.582;1.456;2023-09-18T20:02:53;4.53;;;2.03;;
17496;SDS011;62150;43.582;1.456;2023-09-18T20:05:21;6.40;;;2.05;;
17496;SDS011;62150;43.582;1.456;2023-09-18T20:07:49;5.28;;;2.25;;
17496;SDS011;62150;43.582;1.456;2023-09-18T20:10:17;5.40;;;2.10;;
17496;SDS011;62150;43.582;1.456;2023-09-18T20:12:48;5.18;;;2.28;;
17496;SDS011;62150;43.582;1.456;2023-09-18T20:15:17;5.38;;;2.10;;
17496;SDS011;62150;43.582;1.456;2023-09-18T20:17:46;6.13;;;2.30;;
17496;SDS011;62150;43.582;1.456;2023-09-18T20:20:14;5.53;;;2.30;;
17496;SDS011;62150;43.582;1.456;2023-09-18T20:22:42;7.18;;;2.17;;
17496;SDS011;62150;43.582;1.456;2023-09-18T20:25:10;6.82;;;2.10;;
17496;SDS011;62150;43.582;1.456;2023-09-18T20:27:38;5.10;;;2.00;;
17496;SDS011;62150;43.582;1.456;2023-09-18T20:30:07;6.57;;;2.10;;
17496;SDS011;62150;43.582;1.456;2023-09-18T20:32:37;7.00;;;2.08;;
17496;SDS011;62150;43.582;1.456;2023-09-18T20:35:05;7.15;;;2.10;;
17496;SDS011;62150;43.582;1.456;2023-09-18T20:37:33;5.38;;;2.00;;
17496;SDS011;62150;43.582;1.456;2023-09-18T20:40:02;6.50;;;2.05;;
17496;SDS011;62150;43.582;1.456;2023-09-18T20:42:31;7.40;;;2.17;;
17496;SDS011;62150;43.582;1.456;2023-09-18T20:44:59;6.32;;;2.05;;
17496;SDS011;62150;43.582;1.456;2023-09-18T20:47:29;6.57;;;2.17;;
17496;SDS011;62150;43.582;1.456;2023-09-18T20:49:59;5.07;;;2.05;;
17496;SDS011;62150;43.582;1.456;2023-09-18T20:52:27;6.55;;;2.08;;